Latest Weather Observations for Dwellingup

IDW60801

Issued at 8:35 pm WST Monday 20 October 2014 (issued every 30 minutes, with the page automatically refreshed every 10 minutes)

About weather observations | Map of weather stations | Latest weather observations for WA | Other Formats
Station Details ID: 009538 Name: DWELLINGUP Lat: -32.71 Lon: 116.06 Height: 267.0 m
Data from the previous 72 hours. | See also: Recent months at Dwellingup
Date/Time
WST
Temp
°C
App
Temp
°C
Dew
Point
Rel
Hum
%
Delta-T
°C
Wind Press
QNH
hPa
Press
MSL
hPa
Rain
since 9 am
mm
Dir
 
Spd
km/h
Gust
km/h
Spd
kts
Gust
kts
20/08:30pm 12.1 10.0 9.8 86 1.2 W 11 17 6 9 1021.1 1020.9 0.0
20/08:00pm 12.6 10.2 10.0 84 1.3 W 13 17 7 9 1020.9 1020.7 0.0
20/07:30pm 13.3 11.2 9.9 80 1.8 WSW 11 15 6 8 1020.7 1020.5 0.0
20/07:00pm 13.6 11.2 10.2 80 1.8 WSW 13 17 7 9 1020.4 1020.2 0.0
20/06:30pm 14.3 11.9 10.1 76 2.2 WSW 13 19 7 10 1020.2 1020.0 0.0
20/06:00pm 15.2 13.1 9.6 69 2.9 WSW 11 19 6 10 1019.8 1019.5 0.0
20/05:30pm 16.3 13.4 9.5 64 3.6 SW 15 30 8 16 1019.4 1019.2 0.0
20/05:00pm 15.9 12.7 9.8 67 3.2 WSW 17 28 9 15 1019.4 1019.2 0.0
20/04:30pm 15.9 12.8 10.2 69 3.0 SW 17 28 9 15 1019.2 1019.0 0.0
20/04:00pm 16.2 13.0 9.8 66 3.4 W 17 28 9 15 1018.9 1018.7 0.0
20/03:30pm 18.5 14.9 10.6 60 4.3 W 20 39 11 21 1018.5 1018.3 0.0
20/03:00pm 17.0 13.2 9.2 60 4.1 W 19 37 10 20 1018.5 1018.3 0.0
20/02:30pm 17.9 14.6 9.5 58 4.5 W 17 32 9 17 1018.1 1017.9 0.0
20/02:00pm 17.3 13.6 9.5 60 4.1 W 19 28 10 15 1018.0 1017.8 0.0
20/01:30pm 17.8 14.6 9.9 60 4.2 W 17 32 9 17 1017.9 1017.7 0.0
20/01:00pm 16.4 13.7 10.5 68 3.2 WSW 15 26 8 14 1018.0 1017.8 0.0
20/12:30pm 16.3 14.7 11.5 73 2.6 WSW 11 20 6 11 1017.8 1017.6 0.0
20/12:00pm 16.9 14.4 11.2 69 3.1 WSW 15 22 8 12 1017.7 1017.5 0.0
20/11:30am 16.5 14.1 11.4 72 2.8 WSW 15 24 8 13 1017.8 1017.6 0.0
20/11:00am 16.2 13.9 10.5 69 3.1 WSW 13 22 7 12 1017.6 1017.4 0.0
20/10:30am 15.7 12.7 10.5 71 2.8 WSW 17 28 9 15 1017.7 1017.5 0.0
20/10:00am 15.8 13.7 11.0 73 2.6 WSW 13 22 7 12 1017.6 1017.4 0.0
20/09:30am 15.0 12.4 10.8 76 2.3 WSW 15 24 8 13 1017.6 1017.4 0.0
20/09:00am 13.4 10.8 10.8 84 1.4 WSW 15 24 8 13 1017.8 1017.6 3.4
20/08:30am 13.0 10.0 10.5 85 1.3 WSW 17 32 9 17 1017.6 1017.4 3.4
20/08:00am 12.4 9.6 10.1 86 1.2 SW 15 24 8 13 1017.6 1017.4 3.4
20/07:30am 11.8 9.3 9.7 87 1.1 SW 13 26 7 14 1017.3 1017.1 3.4
20/07:00am 11.2 7.8 9.3 88 1.0 SW 17 28 9 15 1017.1 1016.9 3.4
20/06:30am 10.9 7.9 9.2 89 0.9 SSW 15 24 8 13 1016.8 1016.5 3.4
20/06:00am 10.4 7.0 9.0 91 0.7 SSW 17 26 9 14 1016.4 1016.1 3.4
20/05:30am 10.2 6.7 8.8 91 0.7 SSW 17 30 9 16 1016.2 1015.9 3.4
20/05:00am 10.1 6.2 8.5 90 0.8 SW 19 28 10 15 1015.4 1015.2 3.4
20/04:30am 10.1 6.9 8.4 89 0.8 SW 15 26 8 14 1015.4 1015.2 3.4
20/04:00am 10.4 7.6 8.5 88 0.9 WSW 13 22 7 12 1015.3 1015.1 3.4
20/03:30am 10.4 7.6 8.5 88 0.9 WSW 13 20 7 11 1015.3 1015.1 3.4
20/03:00am 10.3 7.5 8.6 89 0.8 SW 13 20 7 11 1015.0 1014.8 3.4
20/02:30am 10.2 7.4 8.5 89 0.8 SW 13 20 7 11 1015.2 1015.0 3.4
20/02:00am 10.1 7.3 8.4 89 0.8 SSW 13 20 7 11 1015.1 1014.9 3.4
20/01:30am 10.2 7.4 8.5 89 0.8 SW 13 24 7 13 1015.4 1015.2 3.4
20/01:00am 10.2 7.8 8.5 89 0.8 WSW 11 15 6 8 1015.7 1015.4 3.4
20/12:30am 10.3 7.8 8.4 88 0.9 WSW 11 15 6 8 1015.9 1015.6 3.4
20/12:00am 10.6 8.6 8.5 87 1.0 WSW 9 17 5 9 1016.0 1015.7 3.4
 
Date/Time
WST
Temp
°C
App
Temp
°C
Dew
Point
Rel
Hum
%
Delta-T
°C
Wind Press
QNH
hPa
Press
MSL
hPa
Rain
since 9 am
mm
Dir
 
Spd
km/h
Gust
km/h
Spd
kts
Gust
kts
19/11:30pm 10.6 7.8 8.4 86 1.1 SSW 13 19 7 10 1016.2 1015.9 3.4
19/11:00pm 10.6 8.1 8.4 86 1.1 SSW 11 15 6 8 1016.3 1016.0 3.4
19/10:30pm 10.6 8.1 8.0 84 1.3 S 11 19 6 10 1016.3 1016.0 3.4
19/10:00pm 10.8 8.3 8.2 84 1.3 SSW 11 15 6 8 1016.5 1016.2 3.4
19/09:30pm 10.8 8.3 8.4 85 1.2 SW 11 19 6 10 1016.7 1016.4 3.4
19/09:00pm 10.8 8.7 8.2 84 1.3 S 9 15 5 8 1016.5 1016.2 3.4
19/08:30pm 10.9 8.5 8.5 85 1.2 SSE 11 17 6 9 1016.3 1016.0 3.4
19/08:00pm 10.7 7.5 8.3 85 1.2 SSE 15 28 8 15 1016.3 1016.0 3.4
19/07:30pm 10.9 7.6 8.1 83 1.4 SSE 15 28 8 15 1015.8 1015.5 3.4
19/07:00pm 11.3 7.8 8.7 84 1.3 SSE 17 28 9 15 1015.7 1015.4 3.4
19/06:30pm 11.4 7.9 8.6 83 1.4 SSE 17 28 9 15 1015.2 1015.0 3.4
19/06:00pm 11.9 8.4 8.9 82 1.5 SE 17 33 9 18 1015.1 1014.9 3.4
19/05:30pm 12.3 8.5 9.7 84 1.3 SSE 20 39 11 21 1015.0 1014.8 3.4
19/05:00pm 12.2 8.4 9.8 85 1.2 SE 20 35 11 19 1014.8 1014.6 3.4
19/04:30pm 12.2 8.0 9.9 86 1.2 SE 22 37 12 20 1014.7 1014.5 3.4
19/04:00pm 12.3 8.7 10.4 88 1.0 SSE 20 37 11 20 1014.7 1014.5 3.4
19/03:30pm 12.5 8.6 10.9 90 0.8 SE 22 39 12 21 1014.6 1014.4 3.2
19/03:00pm 12.3 8.7 10.5 89 0.9 SE 20 35 11 19 1014.8 1014.6 2.8
19/02:30pm 12.5 9.1 10.7 89 0.9 SSE 19 30 10 16 1015.1 1014.9 2.4
19/02:00pm 12.6 9.6 10.7 88 1.0 SSE 17 32 9 17 1015.2 1015.0 2.2
19/01:30pm 12.3 9.6 10.5 89 0.9 SSE 15 22 8 12 1015.3 1015.1 2.0
19/01:00pm 12.3 8.3 10.4 88 1.0 SE 22 35 12 19 1015.5 1015.3 1.4
19/12:30pm 12.3 7.8 10.0 86 1.2 SE 24 37 13 20 1015.7 1015.4 1.0
19/12:00pm 12.6 7.8 10.3 86 1.2 SE 26 43 14 23 1015.9 1015.6 0.8
19/11:34am 12.8 7.7 10.7 87 1.1 SE 28 46 15 25 1016.0 1015.7 0.8
19/11:30am 12.8 7.8 10.9 88 1.0 SE 28 43 15 23 1016.0 1015.7 0.8
19/11:00am 12.2 7.0 10.1 87 1.1 SE 28 50 15 27 1016.0 1015.7 0.4
19/10:37am 12.7 7.5 10.4 86 1.2 SE 28 52 15 28 1016.2 1015.9 0.2
19/10:30am 12.7 8.6 10.2 85 1.3 SE 22 43 12 23 1016.3 1016.0 0.0
19/10:00am 12.6 6.9 9.8 83 1.4 SE 30 52 16 28 1016.3 1016.0 0.0
19/09:35am 12.6 7.4 10.1 85 1.3 SE 28 52 15 28 1016.3 1016.0 0.0
19/09:30am 12.3 7.4 10.0 86 1.2 SE 26 52 14 28 1016.3 1016.0 0.0
19/09:00am 11.8 7.1 9.2 84 1.3 SE 24 43 13 23 1016.4 1016.1 4.6
19/08:38am 11.7 6.1 8.7 82 1.5 ESE 28 48 15 26 1016.4 1016.1 4.6
19/08:30am 11.6 6.8 8.8 83 1.4 ESE 24 43 13 23 1016.4 1016.1 4.6
19/08:00am 11.4 5.5 9.0 85 1.2 ESE 30 52 16 28 1016.4 1016.1 4.6
19/07:37am 11.2 5.7 9.3 88 1.0 ESE 28 48 15 26 1016.2 1015.9 4.6
19/07:30am 11.0 6.3 9.3 89 0.9 ESE 24 41 13 22 1016.3 1016.0 4.6
19/07:11am 10.9 5.4 9.2 89 0.9 ESE 28 50 15 27 1016.3 1016.0 4.6
19/07:00am 10.9 6.2 9.2 89 0.9 ESE 24 39 13 21 1016.4 1016.1 4.6
19/06:30am 11.2 6.0 8.8 85 1.2 ESE 26 46 14 25 1016.4 1016.1 4.6
19/06:00am 11.3 6.1 8.9 85 1.2 ESE 26 46 14 25 1016.4 1016.1 4.6
19/05:57am 11.3 5.7 8.9 85 1.2 ESE 28 46 15 25 1016.3 1016.0 4.6
19/05:30am 11.6 7.1 8.6 82 1.5 ESE 22 41 12 22 1015.8 1015.5 4.6
19/05:00am 11.6 6.8 8.8 83 1.4 ESE 24 39 13 21 1015.5 1015.3 4.6
19/04:30am 11.5 7.0 8.7 83 1.4 ESE 22 37 12 20 1015.4 1015.2 4.6
19/04:00am 11.5 6.7 8.7 83 1.4 SE 24 44 13 24 1015.2 1015.0 4.6
19/03:30am 11.4 7.0 8.8 84 1.3 ESE 22 46 12 25 1015.5 1015.3 4.6
19/03:00am 11.4 6.2 8.8 84 1.3 ESE 26 44 14 24 1015.7 1015.4 4.6
19/02:30am 11.4 5.4 8.8 84 1.3 ESE 30 52 16 28 1015.4 1015.2 4.6
19/02:20am 11.5 5.9 8.7 83 1.4 ESE 28 48 15 26 1015.8 1015.5 4.6
19/02:00am 11.4 6.6 8.8 84 1.3 ESE 24 37 13 20 1016.0 1015.7 4.6
19/01:40am 11.3 5.7 8.9 85 1.2 ESE 28 48 15 26 1016.0 1015.7 4.6
19/01:30am 11.2 6.0 8.9 86 1.2 ESE 26 41 14 22 1016.0 1015.7 4.6
19/01:03am 11.2 5.7 9.1 87 1.1 ESE 28 46 15 25 1016.4 1016.1 4.6
19/01:00am 11.2 6.1 9.1 87 1.1 ESE 26 41 14 22 1016.4 1016.1 4.6
19/12:30am 11.3 5.8 9.2 87 1.1 ESE 28 48 15 26 1016.5 1016.2 4.6
19/12:00am 11.2 5.3 9.1 87 1.1 ESE 30 54 16 29 1016.7 1016.4 4.6
 
Date/Time
WST
Temp
°C
App
Temp
°C
Dew
Point
Rel
Hum
%
Delta-T
°C
Wind Press
QNH
hPa
Press
MSL
hPa
Rain
since 9 am
mm
Dir
 
Spd
km/h
Gust
km/h
Spd
kts
Gust
kts
18/11:30pm 11.1 5.5 8.8 86 1.2 ESE 28 46 15 25 1016.9 1016.6 4.4
18/11:02pm 11.2 5.2 8.8 85 1.2 ESE 30 48 16 26 1016.6 1016.3 4.4
18/11:00pm 11.3 5.4 8.9 85 1.2 ESE 30 46 16 25 1016.6 1016.3 4.4
18/10:42pm 11.4 5.8 8.8 84 1.3 ESE 28 46 15 25 1016.8 1016.5 4.4
18/10:30pm 11.5 6.3 8.9 84 1.3 ESE 26 46 14 25 1016.9 1016.6 4.4
18/10:00pm 11.4 5.9 9.1 86 1.2 ESE 28 50 15 27 1017.1 1016.9 4.4
18/09:39pm 11.4 6.0 9.5 88 1.0 ESE 28 56 15 30 1017.3 1017.1 4.4
18/09:30pm 11.5 6.9 9.6 88 1.0 ESE 24 52 13 28 1017.2 1017.0 4.4
18/09:00pm 11.7 6.4 9.9 89 0.9 SE 28 48 15 26 1017.0 1016.8 4.4
18/08:34pm 12.0 6.8 10.4 90 0.8 SE 28 56 15 30 1016.7 1016.4 4.2
18/08:30pm 11.9 7.5 10.3 90 0.8 SE 24 48 13 26 1016.7 1016.4 4.2
18/08:00pm 12.1 7.0 10.5 90 0.8 ESE 28 52 15 28 1016.3 1016.0 4.2
18/07:42pm 12.2 7.2 10.8 91 0.7 ESE 28 52 15 28 1016.4 1016.1 4.2
18/07:30pm 12.2 7.9 10.8 91 0.7 ESE 24 39 13 21 1016.3 1016.0 4.2
18/07:00pm 12.3 7.2 10.7 90 0.8 ESE 28 54 15 29 1016.0 1015.7 3.0
18/06:34pm 12.8 7.8 10.9 88 1.0 ESE 28 46 15 25 1015.5 1015.3 1.4
18/06:30pm 12.9 7.9 11.0 88 1.0 ESE 28 43 15 23 1015.5 1015.3 1.4
18/06:23pm 13.1 8.2 11.2 88 1.0 ESE 28 46 15 25 1015.7 1015.4 1.2
18/06:00pm 13.1 9.3 11.2 88 1.0 ESE 22 39 12 21 1014.9 1014.7 1.0
18/05:30pm 13.2 8.2 10.9 86 1.2 SE 28 46 15 25 1014.0 1013.8 0.8
18/05:05pm 13.6 8.7 11.3 86 1.2 SE 28 48 15 26 1013.7 1013.4 0.4
18/05:00pm 13.5 9.3 11.2 86 1.2 SE 24 46 13 25 1013.7 1013.4 0.4
18/04:35pm 14.4 9.5 11.4 82 1.6 SE 28 48 15 26 1013.9 1013.7 0.0
18/04:30pm 14.4 9.4 11.0 80 1.8 SE 28 44 15 24 1013.9 1013.7 0.0
18/04:13pm 15.0 10.0 10.8 76 2.3 SE 28 46 15 25 1014.0 1013.8 0.0
18/04:00pm 14.9 10.5 10.5 75 2.3 SE 24 41 13 22 1013.7 1013.4 0.0
18/03:31pm 16.1 10.9 10.2 68 3.1 SE 28 46 15 25 1012.8 1012.5 0.0
18/03:30pm 16.1 11.3 10.2 68 3.1 SE 26 46 14 25 1012.7 1012.4 0.0
18/03:00pm 16.8 12.2 11.1 69 3.1 SE 26 44 14 24 1012.9 1012.6 0.0
18/02:31pm 16.8 11.8 11.1 69 3.1 SE 28 46 15 25 1013.0 1012.7 0.0
18/02:30pm 16.8 12.3 11.3 70 3.0 SE 26 46 14 25 1013.0 1012.7 0.0
18/02:05pm 16.6 11.7 11.3 71 2.9 SE 28 48 15 26 1013.0 1012.7 0.0
18/02:00pm 16.8 12.2 10.9 68 3.2 ESE 26 41 14 22 1013.1 1012.8 0.0
18/01:30pm 16.9 12.8 11.6 71 2.9 SE 24 41 13 22 1013.4 1013.1 0.0
18/01:01pm 16.8 11.8 10.9 68 3.2 SE 28 50 15 27 1013.4 1013.1 0.0
18/01:00pm 16.7 11.6 10.5 67 3.3 SE 28 44 15 24 1013.3 1013.0 0.0
18/12:30pm 17.3 12.7 11.1 67 3.4 SE 26 43 14 23 1013.3 1013.0 0.0
18/12:00pm 16.0 11.8 11.2 73 2.6 ESE 24 43 13 23 1013.5 1013.2 0.0
18/11:30am 16.5 12.4 11.6 73 2.7 SE 24 46 13 25 1013.4 1013.1 0.0
18/11:00am 14.8 11.1 11.6 81 1.7 ESE 22 39 12 21 1013.5 1013.2 0.0
18/10:30am 15.0 11.7 11.6 80 1.9 SE 20 35 11 19 1013.5 1013.2 0.0
18/10:00am 15.0 10.9 11.4 79 2.0 SE 24 37 13 20 1013.3 1013.0 0.0
18/09:30am 15.7 11.6 11.5 76 2.3 ESE 24 39 13 21 1013.0 1012.7 0.0
18/09:00am 15.4 12.1 11.6 78 2.1 ESE 20 41 11 22 1013.0 1012.7 1.6
18/08:30am 15.4 11.3 11.6 78 2.1 ESE 24 46 13 25 1012.6 1012.3 1.6
18/08:00am 15.0 11.8 11.8 81 1.8 SE 20 35 11 19 1012.4 1012.1 1.6
18/07:30am 14.1 10.3 11.3 83 1.5 ESE 22 37 12 20 1012.2 1011.9 1.6
18/07:00am 13.8 10.0 11.3 85 1.3 ESE 22 37 12 20 1012.2 1011.9 1.6
18/06:30am 13.2 9.4 11.3 88 1.0 ESE 22 39 12 21 1012.1 1011.8 1.6
18/06:00am 13.0 9.6 11.2 89 1.0 ESE 20 37 11 20 1011.6 1011.4 1.6
18/05:30am 13.0 9.3 11.4 90 0.9 ESE 22 41 12 22 1011.2 1011.0 1.6
18/05:00am 12.8 8.6 11.2 90 0.9 ESE 24 39 13 21 1011.3 1011.1 1.6
18/04:30am 12.8 8.7 11.4 91 0.8 ESE 24 39 13 21 1011.5 1011.3 1.6
18/04:00am 12.7 8.6 11.3 91 0.7 ESE 24 37 13 20 1011.6 1011.4 1.6
18/03:30am 12.6 8.8 11.2 91 0.7 ESE 22 35 12 19 1012.2 1011.9 1.2
18/03:00am 12.8 9.3 11.0 89 1.0 SE 20 32 11 17 1012.4 1012.1 0.8
18/02:30am 13.1 9.3 11.0 87 1.1 SE 22 35 12 19 1012.3 1012.0 0.2
18/02:00am 13.8 10.3 11.0 83 1.5 SE 20 33 11 18 1012.4 1012.1 0.0
18/01:30am 14.1 10.7 11.1 82 1.6 ESE 20 35 11 19 1012.3 1012.0 0.0
18/01:00am 14.7 10.8 10.7 77 2.1 ESE 22 39 12 21 1013.5 1013.2 0.0
18/12:30am 15.2 10.7 10.2 72 2.7 ESE 24 39 13 21 1013.0 1012.7 0.0
18/12:00am 15.7 11.0 10.5 71 2.8 SE 26 41 14 22 1012.2 1011.9 0.0
 
Date/Time
WST
Temp
°C
App
Temp
°C
Dew
Point
Rel
Hum
%
Delta-T
°C
Wind Press
QNH
hPa
Press
MSL
hPa
Rain
since 9 am
mm
Dir
 
Spd
km/h
Gust
km/h
Spd
kts
Gust
kts
17/11:30pm 16.3 12.0 10.6 69 3.1 ESE 24 37 13 20 1013.1 1012.8 0.0
17/11:00pm 16.3 12.9 10.4 68 3.2 SE 19 33 10 18 1012.1 1011.8 0.0
17/10:30pm 16.3 13.2 10.4 68 3.2 SE 17 26 9 14 1011.8 1011.5 0.0
17/10:00pm 15.7 12.2 10.9 73 2.6 SE 20 33 11 18 1012.1 1011.8 0.0
17/09:30pm 15.6 12.3 10.8 73 2.6 SSE 19 30 10 16 1012.4 1012.1 0.0
17/09:00pm 15.7 13.1 10.7 72 2.7 SSE 15 20 8 11 1012.8 1012.5 0.0

Other Formats:

Comma delimited format used in spreadsheet applications
http://www.bom.gov.au/fwo/IDW60801/IDW60801.94620.axf

JavaScript Object Notation format (JSON) in row-major order
http://www.bom.gov.au/fwo/IDW60801/IDW60801.94620.json